sensor_id;sensor_type;location;lat;lon;timestamp;pressure;altitude;pressure_sealevel;temperature;humidity
70437;BME280;57877;39.750;-104.894;2023-05-01T00:01:34;83506.24;;;22.27;14.04
70437;BME280;57877;39.750;-104.894;2023-05-01T00:04:00;83502.52;;;21.86;13.98
70437;BME280;57877;39.750;-104.894;2023-05-01T00:06:26;83499.61;;;21.91;13.86
70437;BME280;57877;39.750;-104.894;2023-05-01T00:08:53;83499.58;;;22.30;13.63
70437;BME280;57877;39.750;-104.894;2023-05-01T00:11:18;83493.62;;;22.07;13.65
70437;BME280;57877;39.750;-104.894;2023-05-01T00:13:44;83491.45;;;21.95;13.87
70437;BME280;57877;39.750;-104.894;2023-05-01T00:16:11;83487.75;;;21.73;13.96
70437;BME280;57877;39.750;-104.894;2023-05-01T00:18:37;83490.27;;;21.02;14.67
70437;BME280;57877;39.750;-104.894;2023-05-01T00:21:03;83490.24;;;21.32;14.27
70437;BME280;57877;39.750;-104.894;2023-05-01T00:23:29;83489.77;;;21.11;14.82
70437;BME280;57877;39.750;-104.894;2023-05-01T00:25:54;83485.63;;;20.31;14.77
70437;BME280;57877;39.750;-104.894;2023-05-01T00:28:20;83484.44;;;21.41;14.19
70437;BME280;57877;39.750;-104.894;2023-05-01T00:30:47;83482.97;;;21.42;14.14
70437;BME280;57877;39.750;-104.894;2023-05-01T00:33:12;83485.80;;;20.94;14.63
70437;BME280;57877;39.750;-104.894;2023-05-01T00:35:38;83485.29;;;21.21;14.29
70437;BME280;57877;39.750;-104.894;2023-05-01T00:38:04;83485.29;;;21.57;14.09
70437;BME280;57877;39.750;-104.894;2023-05-01T00:40:30;83480.30;;;21.01;14.51
70437;BME280;57877;39.750;-104.894;2023-05-01T00:42:56;83481.96;;;21.68;13.57
70437;BME280;57877;39.750;-104.894;2023-05-01T00:45:22;83480.44;;;21.24;14.36
70437;BME280;57877;39.750;-104.894;2023-05-01T00:47:48;83475.75;;;20.59;14.76
70437;BME280;57877;39.750;-104.894;2023-05-01T00:50:14;83472.14;;;21.01;14.33
70437;BME280;57877;39.750;-104.894;2023-05-01T00:52:40;83472.69;;;21.22;14.21
70437;BME280;57877;39.750;-104.894;2023-05-01T00:55:07;83472.26;;;21.60;14.09
70437;BME280;57877;39.750;-104.894;2023-05-01T00:57:32;83471.68;;;21.24;14.55
70437;BME280;57877;39.750;-104.894;2023-05-01T00:59:58;83468.18;;;21.29;14.31
70437;BME280;57877;39.750;-104.894;2023-05-01T01:02:24;83468.59;;;21.35;14.67
70437;BME280;57877;39.750;-104.894;2023-05-01T01:04:50;83468.70;;;21.20;14.06
70437;BME280;57877;39.750;-104.894;2023-05-01T01:07:20;83468.24;;;21.77;14.20
70437;BME280;57877;39.750;-104.894;2023-05-01T01:09:50;83465.51;;;21.00;14.56
70437;BME280;57877;39.750;-104.894;2023-05-01T01:12:16;83470.08;;;20.74;14.69
70437;BME280;57877;39.750;-104.894;2023-05-01T01:14:41;83464.80;;;21.06;14.68
70437;BME280;57877;39.750;-104.894;2023-05-01T01:17:09;83467.02;;;19.78;15.42
70437;BME280;57877;39.750;-104.894;2023-05-01T01:19:39;83465.45;;;20.13;15.29
70437;BME280;57877;39.750;-104.894;2023-05-01T01:21:57;83465.04;;;20.00;15.31
70437;BME280;57877;39.750;-104.894;2023-05-01T01:24:28;83466.15;;;19.79;15.37
70437;BME280;57877;39.750;-104.894;2023-05-01T01:31:43;83470.62;;;19.99;15.87
70437;BME280;57877;39.750;-104.894;2023-05-01T01:34:03;83465.20;;;18.61;16.60
70437;BME280;57877;39.750;-104.894;2023-05-01T01:36:38;83465.32;;;18.59;16.86
70437;BME280;57877;39.750;-104.894;2023-05-01T01:38:59;83467.11;;;19.09;16.62
70437;BME280;57877;39.750;-104.894;2023-05-01T01:41:25;83471.13;;;19.35;16.42
70437;BME280;57877;39.750;-104.894;2023-05-01T01:43:49;83468.71;;;19.49;16.31
70437;BME280;57877;39.750;-104.894;2023-05-01T01:46:12;83469.44;;;18.98;16.41
70437;BME280;57877;39.750;-104.894;2023-05-01T01:48:41;83473.31;;;18.96;16.36
70437;BME280;57877;39.750;-104.894;2023-05-01T01:51:07;83475.80;;;18.89;16.45
70437;BME280;57877;39.750;-104.894;2023-05-01T01:53:30;83480.03;;;18.43;17.08
70437;BME280;57877;39.750;-104.894;2023-05-01T01:55:57;83485.72;;;18.47;17.20
70437;BME280;57877;39.750;-104.894;2023-05-01T01:58:22;83484.25;;;18.20;17.50
70437;BME280;57877;39.750;-104.894;2023-05-01T02:00:48;83487.66;;;18.11;17.42
70437;BME280;57877;39.750;-104.894;2023-05-01T02:03:14;83490.62;;;17.83;17.61
70437;BME280;57877;39.750;-104.894;2023-05-01T02:05:40;83491.88;;;18.21;17.47
70437;BME280;57877;39.750;-104.894;2023-05-01T02:08:06;83491.60;;;18.04;17.53
70437;BME280;57877;39.750;-104.894;2023-05-01T02:10:32;83490.11;;;18.29;17.63
70437;BME280;57877;39.750;-104.894;2023-05-01T02:12:58;83497.31;;;18.31;17.24
70437;BME280;57877;39.750;-104.894;2023-05-01T02:15:25;83496.34;;;18.21;17.05
70437;BME280;57877;39.750;-104.894;2023-05-01T02:17:50;83499.65;;;18.16;17.11
70437;BME280;57877;39.750;-104.894;2023-05-01T02:20:15;83503.66;;;18.49;17.10
70437;BME280;57877;39.750;-104.894;2023-05-01T02:22:42;83505.07;;;18.37;16.81
70437;BME280;57877;39.750;-104.894;2023-05-01T02:25:10;83508.07;;;18.11;17.26
70437;BME280;57877;39.750;-104.894;2023-05-01T02:27:37;83514.05;;;18.15;17.19
70437;BME280;57877;39.750;-104.894;2023-05-01T02:29:59;83516.62;;;18.20;17.23
70437;BME280;57877;39.750;-104.894;2023-05-01T02:32:25;83520.65;;;18.61;16.97
70437;BME280;57877;39.750;-104.894;2023-05-01T02:34:51;83523.05;;;17.78;17.53
70437;BME280;57877;39.750;-104.894;2023-05-01T02:37:17;83528.21;;;17.38;17.99
70437;BME280;57877;39.750;-104.894;2023-05-01T02:39:43;83530.92;;;18.14;17.71
70437;BME280;57877;39.750;-104.894;2023-05-01T02:42:10;83535.06;;;17.55;18.05
70437;BME280;57877;39.750;-104.894;2023-05-01T02:44:39;83538.29;;;17.46;18.59
70437;BME280;57877;39.750;-104.894;2023-05-01T02:47:03;83545.99;;;16.84;18.79
70437;BME280;57877;39.750;-104.894;2023-05-01T02:49:27;83548.56;;;16.76;18.82
70437;BME280;57877;39.750;-104.894;2023-05-01T02:51:53;83544.63;;;16.97;18.73
70437;BME280;57877;39.750;-104.894;2023-05-01T02:54:19;83549.68;;;16.88;18.91
70437;BME280;57877;39.750;-104.894;2023-05-01T02:56:45;83551.91;;;16.86;19.23
70437;BME280;57877;39.750;-104.894;2023-05-01T02:59:11;83553.19;;;16.89;18.90
70437;BME280;57877;39.750;-104.894;2023-05-01T03:01:37;83551.94;;;16.34;19.32
70437;BME280;57877;39.750;-104.894;2023-05-01T03:04:03;83560.36;;;16.88;19.31
70437;BME280;57877;39.750;-104.894;2023-05-01T03:06:29;83562.79;;;16.18;19.68
70437;BME280;57877;39.750;-104.894;2023-05-01T03:08:55;83563.71;;;16.47;19.52
70437;BME280;57877;39.750;-104.894;2023-05-01T03:11:20;83565.08;;;16.60;19.70
70437;BME280;57877;39.750;-104.894;2023-05-01T03:13:47;83569.02;;;16.76;19.66
70437;BME280;57877;39.750;-104.894;2023-05-01T03:16:12;83572.34;;;16.38;19.70
70437;BME280;57877;39.750;-104.894;2023-05-01T03:18:39;83578.68;;;16.03;20.39
70437;BME280;57877;39.750;-104.894;2023-05-01T03:21:05;83579.08;;;15.99;20.62
70437;BME280;57877;39.750;-104.894;2023-05-01T03:23:30;83585.35;;;15.14;21.37
70437;BME280;57877;39.750;-104.894;2023-05-01T03:25:56;83584.71;;;15.14;21.46
70437;BME280;57877;39.750;-104.894;2023-05-01T03:28:22;83583.96;;;15.45;21.27
70437;BME280;57877;39.750;-104.894;2023-05-01T03:30:49;83589.67;;;15.20;20.98
70437;BME280;57877;39.750;-104.894;2023-05-01T03:33:14;83588.53;;;15.22;21.07
70437;BME280;57877;39.750;-104.894;2023-05-01T03:35:40;83587.51;;;15.71;20.74
70437;BME280;57877;39.750;-104.894;2023-05-01T03:38:06;83589.58;;;15.78;21.02
70437;BME280;57877;39.750;-104.894;2023-05-01T03:40:32;83588.24;;;15.51;21.10
70437;BME280;57877;39.750;-104.894;2023-05-01T03:42:58;83582.77;;;15.52;21.36
70437;BME280;57877;39.750;-104.894;2023-05-01T03:45:24;83582.08;;;15.04;21.35
70437;BME280;57877;39.750;-104.894;2023-05-01T03:47:50;83577.87;;;14.51;22.08
70437;BME280;57877;39.750;-104.894;2023-05-01T03:50:16;83572.59;;;13.83;22.64
70437;BME280;57877;39.750;-104.894;2023-05-01T03:52:42;83573.01;;;14.42;22.47
70437;BME280;57877;39.750;-104.894;2023-05-01T03:55:08;83572.70;;;14.40;22.33
70437;BME280;57877;39.750;-104.894;2023-05-01T03:57:34;83572.35;;;14.88;22.14
70437;BME280;57877;39.750;-104.894;2023-05-01T04:00:00;83569.56;;;14.49;22.49
70437;BME280;57877;39.750;-104.894;2023-05-01T04:02:26;83567.19;;;14.42;22.38
70437;BME280;57877;39.750;-104.894;2023-05-01T04:04:52;83565.90;;;14.26;22.32
70437;BME280;57877;39.750;-104.894;2023-05-01T04:07:18;83564.04;;;14.45;22.61
70437;BME280;57877;39.750;-104.894;2023-05-01T04:09:44;83562.22;;;14.23;22.67
70437;BME280;57877;39.750;-104.894;2023-05-01T04:12:10;83557.44;;;14.68;22.47
70437;BME280;57877;39.750;-104.894;2023-05-01T04:14:36;83555.47;;;14.99;22.04
70437;BME280;57877;39.750;-104.894;2023-05-01T04:17:02;83551.57;;;14.66;21.91
70437;BME280;57877;39.750;-104.894;2023-05-01T04:19:27;83549.21;;;13.95;22.54
70437;BME280;57877;39.750;-104.894;2023-05-01T04:21:54;83547.00;;;14.73;22.51
70437;BME280;57877;39.750;-104.894;2023-05-01T04:24:20;83545.68;;;14.04;22.64
70437;BME280;57877;39.750;-104.894;2023-05-01T04:26:46;83542.83;;;14.18;22.81
70437;BME280;57877;39.750;-104.894;2023-05-01T04:29:12;83543.53;;;13.60;23.60
70437;BME280;57877;39.750;-104.894;2023-05-01T04:31:37;83541.70;;;13.95;23.32
70437;BME280;57877;39.750;-104.894;2023-05-01T04:34:03;83540.98;;;13.77;23.21
70437;BME280;57877;39.750;-104.894;2023-05-01T04:36:29;83545.04;;;14.00;23.08
70437;BME280;57877;39.750;-104.894;2023-05-01T04:38:55;83550.77;;;14.11;22.72
70437;BME280;57877;39.750;-104.894;2023-05-01T04:41:21;83553.02;;;14.31;22.66
70437;BME280;57877;39.750;-104.894;2023-05-01T04:43:47;83554.17;;;14.49;22.29
70437;BME280;57877;39.750;-104.894;2023-05-01T04:46:13;83557.17;;;15.00;22.20
70437;BME280;57877;39.750;-104.894;2023-05-01T04:48:44;83553.58;;;14.72;22.06
70437;BME280;57877;39.750;-104.894;2023-05-01T04:51:05;83549.46;;;15.03;21.85
70437;BME280;57877;39.750;-104.894;2023-05-01T04:53:32;83547.33;;;14.78;22.25
70437;BME280;57877;39.750;-104.894;2023-05-01T04:55:57;83546.43;;;14.35;22.78
70437;BME280;57877;39.750;-104.894;2023-05-01T04:58:23;83547.93;;;14.27;22.93
70437;BME280;57877;39.750;-104.894;2023-05-01T05:00:49;83548.02;;;14.38;22.83
70437;BME280;57877;39.750;-104.894;2023-05-01T05:03:15;83543.39;;;14.73;22.58
70437;BME280;57877;39.750;-104.894;2023-05-01T05:05:41;83545.46;;;14.58;22.61
70437;BME280;57877;39.750;-104.894;2023-05-01T05:08:07;83546.80;;;14.64;22.62
70437;BME280;57877;39.750;-104.894;2023-05-01T05:10:33;83545.67;;;14.24;23.00
70437;BME280;57877;39.750;-104.894;2023-05-01T05:12:59;83537.68;;;14.08;23.48
70437;BME280;57877;39.750;-104.894;2023-05-01T05:15:25;83531.68;;;14.05;23.97
70437;BME280;57877;39.750;-104.894;2023-05-01T05:17:51;83530.40;;;13.54;24.55
70437;BME280;57877;39.750;-104.894;2023-05-01T05:20:17;83531.77;;;13.47;24.65
70437;BME280;57877;39.750;-104.894;2023-05-01T05:22:43;83524.46;;;13.65;24.45
70437;BME280;57877;39.750;-104.894;2023-05-01T05:25:09;83516.39;;;13.88;24.39
70437;BME280;57877;39.750;-104.894;2023-05-01T05:27:35;83509.82;;;13.24;24.64
70437;BME280;57877;39.750;-104.894;2023-05-01T05:30:01;83508.09;;;13.79;24.06
70437;BME280;57877;39.750;-104.894;2023-05-01T05:32:27;83503.70;;;13.54;24.46
70437;BME280;57877;39.750;-104.894;2023-05-01T05:34:53;83504.03;;;13.25;24.80
70437;BME280;57877;39.750;-104.894;2023-05-01T05:37:19;83504.83;;;12.89;25.16
70437;BME280;57877;39.750;-104.894;2023-05-01T05:39:45;83502.75;;;13.15;25.02
70437;BME280;57877;39.750;-104.894;2023-05-01T05:42:11;83503.06;;;12.82;25.67
70437;BME280;57877;39.750;-104.894;2023-05-01T05:44:37;83496.39;;;13.34;25.10
70437;BME280;57877;39.750;-104.894;2023-05-01T05:47:03;83494.89;;;13.28;25.41
70437;BME280;57877;39.750;-104.894;2023-05-01T05:49:29;83495.83;;;13.08;25.38
70437;BME280;57877;39.750;-104.894;2023-05-01T05:51:55;83496.85;;;13.43;25.02
70437;BME280;57877;39.750;-104.894;2023-05-01T05:54:21;83496.71;;;13.47;24.81
70437;BME280;57877;39.750;-104.894;2023-05-01T05:56:47;83496.47;;;13.78;24.77
70437;BME280;57877;39.750;-104.894;2023-05-01T05:59:13;83492.67;;;13.44;25.06
70437;BME280;57877;39.750;-104.894;2023-05-01T06:01:39;83492.86;;;13.35;25.23
70437;BME280;57877;39.750;-104.894;2023-05-01T06:04:05;83489.59;;;13.01;25.35
70437;BME280;57877;39.750;-104.894;2023-05-01T06:06:31;83486.16;;;13.56;25.08
70437;BME280;57877;39.750;-104.894;2023-05-01T06:08:57;83486.52;;;13.48;24.90
70437;BME280;57877;39.750;-104.894;2023-05-01T06:11:23;83486.77;;;13.52;24.95
70437;BME280;57877;39.750;-104.894;2023-05-01T06:13:49;83487.98;;;13.80;24.71
70437;BME280;57877;39.750;-104.894;2023-05-01T06:16:15;83489.54;;;13.97;24.54
70437;BME280;57877;39.750;-104.894;2023-05-01T06:18:41;83486.18;;;13.83;24.43
70437;BME280;57877;39.750;-104.894;2023-05-01T06:21:07;83481.35;;;14.00;24.46
70437;BME280;57877;39.750;-104.894;2023-05-01T06:23:33;83483.67;;;14.05;24.42
70437;BME280;57877;39.750;-104.894;2023-05-01T06:25:59;83485.05;;;14.07;24.41
70437;BME280;57877;39.750;-104.894;2023-05-01T06:28:25;83490.79;;;13.57;24.88
70437;BME280;57877;39.750;-104.894;2023-05-01T06:30:51;83488.43;;;13.57;24.90
70437;BME280;57877;39.750;-104.894;2023-05-01T06:33:16;83486.35;;;13.31;24.90
70437;BME280;57877;39.750;-104.894;2023-05-01T06:35:47;83484.96;;;13.43;24.94
70437;BME280;57877;39.750;-104.894;2023-05-01T06:38:09;83485.32;;;13.14;25.13
70437;BME280;57877;39.750;-104.894;2023-05-01T06:40:34;83485.10;;;13.46;25.10
70437;BME280;57877;39.750;-104.894;2023-05-01T06:43:01;83482.23;;;13.56;24.94
70437;BME280;57877;39.750;-104.894;2023-05-01T06:45:27;83481.76;;;13.39;25.05
70437;BME280;57877;39.750;-104.894;2023-05-01T06:47:52;83486.75;;;13.19;25.00
70437;BME280;57877;39.750;-104.894;2023-05-01T06:50:18;83495.11;;;13.15;25.01
70437;BME280;57877;39.750;-104.894;2023-05-01T06:52:44;83497.80;;;13.22;25.11
70437;BME280;57877;39.750;-104.894;2023-05-01T06:55:10;83494.64;;;13.28;25.04
70437;BME280;57877;39.750;-104.894;2023-05-01T06:57:36;83492.81;;;12.84;25.24
70437;BME280;57877;39.750;-104.894;2023-05-01T07:00:03;83488.82;;;12.85;25.40
70437;BME280;57877;39.750;-104.894;2023-05-01T07:02:28;83487.99;;;12.77;25.42
70437;BME280;57877;39.750;-104.894;2023-05-01T07:04:54;83485.29;;;13.09;25.35
70437;BME280;57877;39.750;-104.894;2023-05-01T07:07:20;83484.40;;;12.85;25.38
70437;BME280;57877;39.750;-104.894;2023-05-01T07:09:46;83486.39;;;12.57;25.74
70437;BME280;57877;39.750;-104.894;2023-05-01T07:12:12;83489.68;;;12.08;26.34
70437;BME280;57877;39.750;-104.894;2023-05-01T07:14:38;83484.95;;;12.10;26.30
70437;BME280;57877;39.750;-104.894;2023-05-01T07:17:04;83479.47;;;12.09;26.35
70437;BME280;57877;39.750;-104.894;2023-05-01T07:19:30;83475.32;;;12.25;25.83
70437;BME280;57877;39.750;-104.894;2023-05-01T07:21:56;83473.46;;;12.35;25.69
70437;BME280;57877;39.750;-104.894;2023-05-01T07:24:23;83472.04;;;12.48;25.52
70437;BME280;57877;39.750;-104.894;2023-05-01T07:26:49;83468.80;;;12.37;25.42
70437;BME280;57877;39.750;-104.894;2023-05-01T07:29:15;83468.00;;;12.39;25.24
70437;BME280;57877;39.750;-104.894;2023-05-01T07:31:41;83465.99;;;12.34;25.24
70437;BME280;57877;39.750;-104.894;2023-05-01T07:34:06;83465.16;;;12.39;25.11
70437;BME280;57877;39.750;-104.894;2023-05-01T07:36:32;83462.25;;;12.21;25.35
70437;BME280;57877;39.750;-104.894;2023-05-01T07:38:58;83461.49;;;12.47;25.37
70437;BME280;57877;39.750;-104.894;2023-05-01T07:41:24;83462.73;;;12.19;25.23
70437;BME280;57877;39.750;-104.894;2023-05-01T07:43:51;83467.13;;;11.94;25.55
70437;BME280;57877;39.750;-104.894;2023-05-01T07:46:17;83468.81;;;12.41;25.32
70437;BME280;57877;39.750;-104.894;2023-05-01T07:48:43;83466.36;;;12.34;25.06
70437;BME280;57877;39.750;-104.894;2023-05-01T07:51:08;83469.80;;;12.23;25.09
70437;BME280;57877;39.750;-104.894;2023-05-01T07:53:34;83474.29;;;12.15;24.91
70437;BME280;57877;39.750;-104.894;2023-05-01T07:56:05;83473.95;;;12.61;24.65
70437;BME280;57877;39.750;-104.894;2023-05-01T07:58:26;83471.32;;;12.63;24.60
70437;BME280;57877;39.750;-104.894;2023-05-01T08:00:53;83469.18;;;12.67;24.66
70437;BME280;57877;39.750;-104.894;2023-05-01T08:03:19;83465.75;;;12.33;24.77
70437;BME280;57877;39.750;-104.894;2023-05-01T08:05:44;83465.58;;;12.69;24.73
70437;BME280;57877;39.750;-104.894;2023-05-01T08:08:10;83464.05;;;12.60;24.82
70437;BME280;57877;39.750;-104.894;2023-05-01T08:10:36;83457.23;;;12.30;24.81
70437;BME280;57877;39.750;-104.894;2023-05-01T08:13:03;83458.42;;;11.97;25.04
70437;BME280;57877;39.750;-104.894;2023-05-01T08:15:28;83456.51;;;11.83;25.49
70437;BME280;57877;39.750;-104.894;2023-05-01T08:17:54;83450.96;;;11.24;26.26
70437;BME280;57877;39.750;-104.894;2023-05-01T08:20:21;83447.99;;;11.21;26.47
70437;BME280;57877;39.750;-104.894;2023-05-01T08:22:46;83447.16;;;11.31;26.22
70437;BME280;57877;39.750;-104.894;2023-05-01T08:25:13;83446.78;;;11.03;26.50
70437;BME280;57877;39.750;-104.894;2023-05-01T08:27:38;83445.40;;;11.58;26.00
70437;BME280;57877;39.750;-104.894;2023-05-01T08:30:06;83441.53;;;11.93;25.62
70437;BME280;57877;39.750;-104.894;2023-05-01T08:32:30;83443.99;;;11.87;25.43
70437;BME280;57877;39.750;-104.894;2023-05-01T08:34:57;83443.21;;;11.65;25.98
70437;BME280;57877;39.750;-104.894;2023-05-01T08:37:22;83442.00;;;11.18;26.83
70437;BME280;57877;39.750;-104.894;2023-05-01T08:39:48;83444.18;;;11.61;26.44
70437;BME280;57877;39.750;-104.894;2023-05-01T08:42:15;83442.14;;;11.62;26.12
70437;BME280;57877;39.750;-104.894;2023-05-01T08:44:42;83442.56;;;11.57;26.25
70437;BME280;57877;39.750;-104.894;2023-05-01T08:47:10;83444.36;;;11.75;26.17
70437;BME280;57877;39.750;-104.894;2023-05-01T08:49:33;83444.40;;;11.54;26.11
70437;BME280;57877;39.750;-104.894;2023-05-01T08:52:01;83444.98;;;11.95;25.94
70437;BME280;57877;39.750;-104.894;2023-05-01T08:54:27;83442.26;;;11.81;26.05
70437;BME280;57877;39.750;-104.894;2023-05-01T08:56:51;83444.59;;;11.84;25.92
70437;BME280;57877;39.750;-104.894;2023-05-01T08:59:17;83447.78;;;11.65;26.10
70437;BME280;57877;39.750;-104.894;2023-05-01T09:01:43;83444.58;;;11.60;26.13
70437;BME280;57877;39.750;-104.894;2023-05-01T09:04:08;83443.61;;;11.57;26.29
70437;BME280;57877;39.750;-104.894;2023-05-01T09:06:34;83440.11;;;12.01;26.25
70437;BME280;57877;39.750;-104.894;2023-05-01T09:09:01;83443.68;;;11.95;26.29
70437;BME280;57877;39.750;-104.894;2023-05-01T09:11:27;83449.59;;;12.02;26.27
70437;BME280;57877;39.750;-104.894;2023-05-01T09:13:52;83452.11;;;11.43;26.43
70437;BME280;57877;39.750;-104.894;2023-05-01T09:16:19;83452.26;;;11.39;26.73
70437;BME280;57877;39.750;-104.894;2023-05-01T09:18:45;83451.95;;;11.65;26.43
70437;BME280;57877;39.750;-104.894;2023-05-01T09:21:11;83448.47;;;11.87;26.43
70437;BME280;57877;39.750;-104.894;2023-05-01T09:23:36;83451.45;;;11.86;26.38
70437;BME280;57877;39.750;-104.894;2023-05-01T09:26:04;83450.51;;;11.17;27.43
70437;BME280;57877;39.750;-104.894;2023-05-01T09:30:54;83443.29;;;11.01;27.62
70437;BME280;57877;39.750;-104.894;2023-05-01T09:33:20;83444.03;;;11.22;27.88
70437;BME280;57877;39.750;-104.894;2023-05-01T09:35:51;83443.13;;;11.09;27.96
70437;BME280;57877;39.750;-104.894;2023-05-01T09:38:17;83440.79;;;10.90;28.16
70437;BME280;57877;39.750;-104.894;2023-05-01T09:40:38;83439.01;;;10.90;28.12
70437;BME280;57877;39.750;-104.894;2023-05-01T09:43:04;83440.85;;;10.32;28.35
70437;BME280;57877;39.750;-104.894;2023-05-01T09:45:30;83444.59;;;10.96;28.31
70437;BME280;57877;39.750;-104.894;2023-05-01T09:50:28;83452.97;;;9.95;29.25
70437;BME280;57877;39.750;-104.894;2023-05-01T09:52:49;83452.03;;;9.29;29.80
70437;BME280;57877;39.750;-104.894;2023-05-01T09:55:16;83451.57;;;9.50;29.96
70437;BME280;57877;39.750;-104.894;2023-05-01T09:57:41;83454.81;;;9.25;29.75
70437;BME280;57877;39.750;-104.894;2023-05-01T10:00:07;83455.60;;;9.11;29.97
70437;BME280;57877;39.750;-104.894;2023-05-01T10:02:32;83461.93;;;8.79;31.18
70437;BME280;57877;39.750;-104.894;2023-05-01T10:04:58;83463.09;;;8.58;31.59
70437;BME280;57877;39.750;-104.894;2023-05-01T10:07:24;83468.26;;;8.64;31.08
70437;BME280;57877;39.750;-104.894;2023-05-01T10:09:51;83468.85;;;8.92;31.12
70437;BME280;57877;39.750;-104.894;2023-05-01T10:12:22;83470.79;;;8.49;31.27
70437;BME280;57877;39.750;-104.894;2023-05-01T10:14:50;83466.79;;;8.68;31.60
70437;BME280;57877;39.750;-104.894;2023-05-01T10:17:16;83462.08;;;8.15;32.03
70437;BME280;57877;39.750;-104.894;2023-05-01T10:19:33;83459.17;;;8.22;31.80
70437;BME280;57877;39.750;-104.894;2023-05-01T10:21:59;83460.58;;;8.48;31.69
70437;BME280;57877;39.750;-104.894;2023-05-01T10:24:24;83463.30;;;7.78;32.74
70437;BME280;57877;39.750;-104.894;2023-05-01T10:26:50;83470.71;;;8.92;31.50
70437;BME280;57877;39.750;-104.894;2023-05-01T10:29:15;83470.23;;;8.32;31.97
70437;BME280;57877;39.750;-104.894;2023-05-01T10:31:41;83472.17;;;8.14;31.74
70437;BME280;57877;39.750;-104.894;2023-05-01T10:34:07;83472.10;;;7.88;31.55
70437;BME280;57877;39.750;-104.894;2023-05-01T10:36:39;83470.34;;;7.66;31.83
70437;BME280;57877;39.750;-104.894;2023-05-01T10:38:59;83470.56;;;8.31;30.74
70437;BME280;57877;39.750;-104.894;2023-05-01T10:51:08;83474.29;;;8.28;31.27
70437;BME280;57877;39.750;-104.894;2023-05-01T10:53:32;83474.88;;;7.74;32.02
70437;BME280;57877;39.750;-104.894;2023-05-01T10:55:58;83475.20;;;7.97;31.65
70437;BME280;57877;39.750;-104.894;2023-05-01T11:10:34;83479.76;;;8.58;30.88
70437;BME280;57877;39.750;-104.894;2023-05-01T11:13:01;83480.29;;;8.59;30.93
70437;BME280;57877;39.750;-104.894;2023-05-01T11:15:30;83480.29;;;8.39;31.48
70437;BME280;57877;39.750;-104.894;2023-05-01T11:17:52;83478.70;;;8.59;31.18
70437;BME280;57877;39.750;-104.894;2023-05-01T11:22:45;83480.69;;;8.22;31.58
70437;BME280;57877;39.750;-104.894;2023-05-01T11:25:19;83482.80;;;7.37;32.43
70437;BME280;57877;39.750;-104.894;2023-05-01T11:27:36;83484.99;;;7.41;31.50
70437;BME280;57877;39.750;-104.894;2023-05-01T11:30:03;83490.89;;;7.46;31.74
70437;BME280;57877;39.750;-104.894;2023-05-01T11:32:28;83485.33;;;7.51;30.82
70437;BME280;57877;39.750;-104.894;2023-05-01T11:34:54;83486.60;;;6.99;31.00
70437;BME280;57877;39.750;-104.894;2023-05-01T11:37:19;83486.79;;;7.23;31.20
70437;BME280;57877;39.750;-104.894;2023-05-01T11:39:49;83488.82;;;7.02;30.98
70437;BME280;57877;39.750;-104.894;2023-05-01T11:42:10;83489.66;;;8.23;29.95
70437;BME280;57877;39.750;-104.894;2023-05-01T11:44:36;83490.96;;;7.98;29.48
70437;BME280;57877;39.750;-104.894;2023-05-01T11:47:01;83495.01;;;7.68;29.73
70437;BME280;57877;39.750;-104.894;2023-05-01T11:49:28;83496.91;;;8.04;29.37
70437;BME280;57877;39.750;-104.894;2023-05-01T11:51:56;83502.14;;;7.95;29.64
70437;BME280;57877;39.750;-104.894;2023-05-01T11:54:19;83499.78;;;7.62;29.81
70437;BME280;57877;39.750;-104.894;2023-05-01T11:56:45;83502.10;;;8.29;29.25
70437;BME280;57877;39.750;-104.894;2023-05-01T11:59:12;83503.63;;;8.23;29.02
70437;BME280;57877;39.750;-104.894;2023-05-01T12:01:39;83508.90;;;8.32;28.91
70437;BME280;57877;39.750;-104.894;2023-05-01T12:04:03;83511.82;;;8.10;28.89
70437;BME280;57877;39.750;-104.894;2023-05-01T12:06:36;83516.53;;;8.12;28.79
70437;BME280;57877;39.750;-104.894;2023-05-01T12:08:54;83516.98;;;8.34;28.97
70437;BME280;57877;39.750;-104.894;2023-05-01T12:11:20;83514.86;;;8.14;28.91
70437;BME280;57877;39.750;-104.894;2023-05-01T12:13:46;83514.97;;;8.62;28.89
70437;BME280;57877;39.750;-104.894;2023-05-01T12:16:13;83516.40;;;8.51;28.73
70437;BME280;57877;39.750;-104.894;2023-05-01T12:18:38;83514.83;;;8.33;29.01
70437;BME280;57877;39.750;-104.894;2023-05-01T12:21:04;83511.70;;;8.44;29.01
70437;BME280;57877;39.750;-104.894;2023-05-01T12:23:32;83511.90;;;8.40;29.26
70437;BME280;57877;39.750;-104.894;2023-05-01T12:25:56;83509.26;;;8.30;29.23
70437;BME280;57877;39.750;-104.894;2023-05-01T12:28:22;83507.93;;;8.23;29.26
70437;BME280;57877;39.750;-104.894;2023-05-01T12:30:48;83511.47;;;7.94;29.86
70437;BME280;57877;39.750;-104.894;2023-05-01T12:33:15;83520.28;;;8.28;29.31
70437;BME280;57877;39.750;-104.894;2023-05-01T12:35:39;83524.84;;;8.50;28.99
70437;BME280;57877;39.750;-104.894;2023-05-01T12:38:10;83527.79;;;8.95;28.61
70437;BME280;57877;39.750;-104.894;2023-05-01T12:40:29;83526.85;;;8.85;28.36
70437;BME280;57877;39.750;-104.894;2023-05-01T12:42:55;83530.43;;;8.78;28.00
70437;BME280;57877;39.750;-104.894;2023-05-01T12:45:20;83533.39;;;9.09;27.80
70437;BME280;57877;39.750;-104.894;2023-05-01T12:47:45;83537.46;;;9.26;27.55
70437;BME280;57877;39.750;-104.894;2023-05-01T12:50:10;83539.71;;;9.18;27.34
70437;BME280;57877;39.750;-104.894;2023-05-01T12:52:36;83541.36;;;9.50;27.07
70437;BME280;57877;39.750;-104.894;2023-05-01T12:55:03;83544.64;;;9.51;26.87
70437;BME280;57877;39.750;-104.894;2023-05-01T12:57:28;83548.88;;;9.35;26.72
70437;BME280;57877;39.750;-104.894;2023-05-01T12:59:58;83546.96;;;9.82;26.64